createdAt,value
2022-12-15T00:05:16.859Z,-10.68
2022-12-15T00:10:39.277Z,-10.72
2022-12-15T00:16:04.256Z,-10.78
2022-12-15T00:21:25.263Z,-10.78
2022-12-15T00:26:46.221Z,-10.90
2022-12-15T00:32:08.596Z,-10.75
2022-12-15T00:37:29.768Z,-10.69
2022-12-15T00:42:33.315Z,-10.52
2022-12-15T00:47:38.386Z,-10.46
2022-12-15T00:52:59.399Z,-10.47
2022-12-15T00:58:20.350Z,-10.51
2022-12-15T01:03:43.821Z,-10.37
2022-12-15T01:09:04.769Z,-10.12
2022-12-15T01:14:25.812Z,-10.02
2022-12-15T01:19:48.258Z,-9.98
2022-12-15T01:24:53.261Z,-9.81
2022-12-15T01:29:56.727Z,-9.88
2022-12-15T01:35:01.640Z,-9.86
2022-12-15T01:40:23.635Z,-10.06
2022-12-15T01:45:50.572Z,-9.78
2022-12-15T01:51:02.283Z,-9.77
2022-12-15T01:56:09.377Z,-9.81
2022-12-15T02:01:13.600Z,-9.93
2022-12-15T02:06:21.719Z,-9.92
2022-12-15T02:11:54.448Z,-9.93
2022-12-15T02:17:14.480Z,-9.94
2022-12-15T02:22:34.109Z,-9.99
2022-12-15T02:27:57.869Z,-10.16
2022-12-15T02:33:12.487Z,-10.26
2022-12-15T02:38:16.036Z,-10.23
2022-12-15T02:43:19.694Z,-10.19
2022-12-15T02:48:35.372Z,-10.21
2022-12-15T02:54:02.607Z,-10.33
2022-12-15T02:59:12.011Z,-10.47
2022-12-15T03:04:17.725Z,-10.53
2022-12-15T03:09:21.415Z,-10.68
2022-12-15T03:14:26.135Z,-10.74
2022-12-15T03:19:31.294Z,-10.79
2022-12-15T03:24:35.090Z,-10.84
2022-12-15T03:29:38.690Z,-10.91
2022-12-15T03:34:43.749Z,-10.94
2022-12-15T03:39:47.899Z,-10.99
2022-12-15T03:44:51.445Z,-10.97
2022-12-15T03:49:56.498Z,-11.02
2022-12-15T03:55:00.056Z,-11.19
2022-12-15T04:00:04.441Z,-11.06
2022-12-15T04:05:20.399Z,-11.24
2022-12-15T04:10:28.718Z,-11.28
2022-12-15T04:15:39.098Z,-11.25
2022-12-15T04:20:44.086Z,-11.26
2022-12-15T04:26:05.207Z,-11.20
2022-12-15T04:31:27.992Z,-11.24
2022-12-15T04:36:51.716Z,-11.07
2022-12-15T04:42:16.477Z,-11.19
2022-12-15T04:47:37.612Z,-10.97
2022-12-15T04:53:00.193Z,-10.95
2022-12-15T04:58:25.523Z,-11.03
2022-12-15T05:03:47.285Z,-10.88
2022-12-15T05:09:09.976Z,-10.86
2022-12-15T05:14:32.216Z,-10.78
2022-12-15T05:19:53.902Z,-10.96
2022-12-15T05:25:16.475Z,-10.68
2022-12-15T05:30:37.837Z,-10.63
2022-12-15T05:35:41.722Z,-10.60
2022-12-15T05:40:46.968Z,-10.68
2022-12-15T05:45:51.372Z,-10.54
2022-12-15T05:50:55.272Z,-10.65
2022-12-15T05:56:03.810Z,-10.71
2022-12-15T06:01:10.140Z,-10.81
2022-12-15T06:06:15.030Z,-10.83
2022-12-15T06:11:22.224Z,-10.95
2022-12-15T06:16:28.042Z,-11.05
2022-12-15T06:21:35.310Z,-11.39
2022-12-15T06:26:41.368Z,-11.36
2022-12-15T06:31:45.535Z,-11.21
2022-12-15T06:36:49.275Z,-11.40
2022-12-15T06:41:54.471Z,-11.28
2022-12-15T06:46:58.240Z,-11.35
2022-12-15T06:52:02.157Z,-11.51
2022-12-15T06:57:07.431Z,-11.27
2022-12-15T07:02:20.070Z,-11.35
2022-12-15T07:07:26.682Z,-11.26
2022-12-15T07:12:32.083Z,-11.14
2022-12-15T07:17:37.118Z,-11.08
2022-12-15T07:22:40.724Z,-11.08
2022-12-15T07:27:45.932Z,-10.98
2022-12-15T07:32:50.267Z,-10.89
2022-12-15T07:37:54.457Z,-10.84
2022-12-15T07:42:59.448Z,-10.65
2022-12-15T07:48:05.366Z,-10.49
2022-12-15T07:53:08.997Z,-10.30
2022-12-15T07:58:14.318Z,-9.95
2022-12-15T08:03:19.041Z,-9.45
2022-12-15T08:08:23.457Z,-9.33
2022-12-15T08:14:00.776Z,-8.72
2022-12-15T08:18:52.308Z,-8.55
2022-12-15T08:23:55.884Z,-8.38
2022-12-15T08:29:31.881Z,-8.12
2022-12-15T08:34:27.708Z,-7.39
2022-12-15T08:39:32.090Z,-7.47
2022-12-15T08:44:37.840Z,-6.69
2022-12-15T08:49:41.573Z,-6.30
2022-12-15T08:54:45.281Z,-5.99
2022-12-15T08:59:50.429Z,-5.76
2022-12-15T09:04:54.539Z,-5.14
2022-12-15T09:09:58.335Z,-4.77
2022-12-15T09:15:03.309Z,-4.97
2022-12-15T09:20:09.100Z,-4.42
2022-12-15T09:25:12.846Z,-4.29
2022-12-15T09:30:18.093Z,-4.17
2022-12-15T09:35:22.124Z,-3.70
2022-12-15T09:40:26.595Z,-3.79
2022-12-15T09:45:38.402Z,-4.15
2022-12-15T09:50:44.286Z,-4.12
2022-12-15T09:56:04.515Z,-4.01
2022-12-15T10:01:18.100Z,-4.05
2022-12-15T10:06:32.763Z,-3.59
2022-12-15T10:17:24.042Z,-3.26
2022-12-15T10:22:31.212Z,-3.29
2022-12-15T10:27:55.657Z,-2.86
2022-12-15T10:33:04.002Z,-2.94
2022-12-15T10:38:23.318Z,-2.48
2022-12-15T10:43:30.537Z,-2.30
2022-12-15T10:48:36.595Z,-1.98
2022-12-15T10:53:42.675Z,-1.57
2022-12-15T10:58:50.049Z,-1.49
2022-12-15T11:03:56.257Z,-1.12
2022-12-15T11:09:10.546Z,-1.52
2022-12-15T11:14:17.114Z,-1.13
2022-12-15T11:19:32.644Z,-0.80
2022-12-15T11:24:41.496Z,-0.93
2022-12-15T11:29:56.495Z,-0.87
2022-12-15T11:35:01.879Z,-0.55
2022-12-15T11:40:28.495Z,-0.72
2022-12-15T11:45:42.858Z,-0.85
2022-12-15T11:50:56.924Z,-0.61
2022-12-15T11:56:09.711Z,-0.43
2022-12-15T12:01:26.289Z,-0.62
2022-12-15T12:06:35.858Z,-0.91
2022-12-15T12:17:19.099Z,-0.68
2022-12-15T12:22:29.696Z,-0.78
2022-12-15T12:27:41.268Z,-0.97
2022-12-15T12:32:54.954Z,-0.48
2022-12-15T12:38:03.944Z,-0.39
2022-12-15T12:43:13.657Z,-0.11
2022-12-15T12:48:23.507Z,-0.14
2022-12-15T12:53:34.117Z,-0.67
2022-12-15T12:58:41.407Z,-0.46
2022-12-15T13:03:45.085Z,-0.52
2022-12-15T13:08:52.642Z,-0.58
2022-12-15T13:13:56.493Z,-0.77
2022-12-15T13:19:03.642Z,-0.84
2022-12-15T13:24:23.626Z,-0.86
2022-12-15T13:29:27.375Z,-0.85
2022-12-15T13:34:38.717Z,-0.87
2022-12-15T13:39:59.342Z,-1.34
2022-12-15T13:45:31.425Z,-1.35
2022-12-15T13:50:51.324Z,-1.65
2022-12-15T13:56:05.355Z,-1.83
2022-12-15T14:01:24.009Z,-2.07
2022-12-15T14:06:41.202Z,-2.17
2022-12-15T14:11:53.538Z,-2.26
2022-12-15T14:17:00.791Z,-2.87
2022-12-15T14:22:04.530Z,-2.94
2022-12-15T14:27:09.929Z,-3.18
2022-12-15T14:32:13.799Z,-3.71
2022-12-15T14:37:21.255Z,-3.85
2022-12-15T14:42:29.645Z,-4.36
2022-12-15T14:47:36.458Z,-4.58
2022-12-15T14:52:42.833Z,-5.01
2022-12-15T14:57:48.773Z,-5.14
2022-12-15T15:03:06.437Z,-3.74
2022-12-15T15:03:07.047Z,-0.81
2022-12-15T15:03:20.019Z,-5.35
2022-12-15T15:08:29.353Z,-5.89
2022-12-15T15:13:40.115Z,-5.77
2022-12-15T15:18:45.118Z,-5.96
2022-12-15T15:24:02.695Z,-6.25
2022-12-15T15:29:37.850Z,-6.45
2022-12-15T15:34:41.730Z,-6.53
2022-12-15T15:39:45.675Z,-6.75
2022-12-15T15:44:50.587Z,-7.00
2022-12-15T15:49:55.862Z,-7.11
2022-12-15T15:55:00.175Z,-7.19
2022-12-15T16:00:16.994Z,-7.39
2022-12-15T16:05:21.097Z,-7.41
2022-12-15T16:10:25.202Z,-7.47
2022-12-15T16:15:32.835Z,-7.62
2022-12-15T16:20:39.795Z,-7.73
2022-12-15T16:25:50.518Z,-7.75
2022-12-15T16:30:58.467Z,-7.75
2022-12-15T16:36:02.543Z,-7.83
2022-12-15T16:41:08.593Z,-7.92
2022-12-15T16:46:15.858Z,-8.06
2022-12-15T16:51:32.444Z,-8.12
2022-12-15T16:56:35.942Z,-8.14
2022-12-15T17:01:41.477Z,-8.32
2022-12-15T17:06:45.105Z,-8.39
2022-12-15T17:11:49.106Z,-8.49
2022-12-15T17:16:57.034Z,-8.68
2022-12-15T17:22:03.521Z,-8.82
2022-12-15T17:27:07.876Z,-8.92
2022-12-15T17:32:14.108Z,-9.09
2022-12-15T17:37:19.040Z,-9.09
2022-12-15T17:42:22.672Z,-9.25
2022-12-15T17:47:30.724Z,-9.43
2022-12-15T17:52:35.613Z,-9.40
2022-12-15T17:57:39.625Z,-9.43
2022-12-15T18:02:45.259Z,-9.49
2022-12-15T18:07:53.163Z,-9.58
2022-12-15T18:12:57.215Z,-9.66
2022-12-15T18:18:02.681Z,-9.66
2022-12-15T18:23:14.447Z,-9.92
2022-12-15T18:28:22.108Z,-9.79
2022-12-15T18:33:30.402Z,-9.89
2022-12-15T18:38:34.567Z,-10.07
2022-12-15T18:43:38.519Z,-10.17
2022-12-15T18:48:44.695Z,-10.01
2022-12-15T18:53:49.480Z,-10.12
2022-12-15T18:58:53.159Z,-10.29
2022-12-15T19:03:58.186Z,-10.31
2022-12-15T19:09:03.273Z,-10.37
2022-12-15T19:14:35.350Z,-10.46
2022-12-15T19:19:58.065Z,-10.47
2022-12-15T19:25:03.759Z,-10.68
2022-12-15T19:30:15.606Z,-10.62
2022-12-15T19:35:21.350Z,-10.66
2022-12-15T19:40:27.665Z,-10.68
2022-12-15T19:45:36.615Z,-10.79
2022-12-15T19:50:43.867Z,-10.83
2022-12-15T19:55:48.544Z,-10.86
2022-12-15T20:00:52.994Z,-10.90
2022-12-15T20:06:00.214Z,-11.06
2022-12-15T20:11:04.328Z,-10.99
2022-12-15T20:16:09.165Z,-11.11
2022-12-15T20:21:21.903Z,-11.12
2022-12-15T20:26:27.435Z,-11.05
2022-12-15T20:31:32.113Z,-11.02
2022-12-15T20:36:39.254Z,-11.11
2022-12-15T20:41:43.056Z,-11.17
2022-12-15T20:46:47.694Z,-11.19
2022-12-15T20:51:53.077Z,-11.19
2022-12-15T20:56:56.574Z,-10.94
2022-12-15T21:02:00.804Z,-10.84
2022-12-15T21:07:10.843Z,-10.99
2022-12-15T21:12:19.498Z,-10.92
2022-12-15T21:17:25.696Z,-10.88
2022-12-15T21:22:30.635Z,-10.90
2022-12-15T21:27:34.386Z,-10.87
2022-12-15T21:32:38.131Z,-10.88
2022-12-15T21:37:44.324Z,-10.81
2022-12-15T21:42:50.067Z,-10.88
2022-12-15T21:48:12.949Z,-10.74
2022-12-15T21:53:19.028Z,-10.82
2022-12-15T21:58:28.112Z,-10.68
2022-12-15T22:03:31.907Z,-10.74
2022-12-15T22:08:37.047Z,-10.95
2022-12-15T22:13:40.716Z,-10.60
2022-12-15T22:18:44.478Z,-10.59
2022-12-15T22:23:50.878Z,-10.36
2022-12-15T22:28:56.432Z,-10.27
2022-12-15T22:34:00.088Z,-10.46
2022-12-15T22:39:08.226Z,-10.20
2022-12-15T22:44:17.946Z,-10.23
2022-12-15T22:49:24.292Z,-10.22
2022-12-15T22:54:30.899Z,-10.23
2022-12-15T22:59:41.229Z,-10.25
2022-12-15T23:04:45.072Z,-10.25
2022-12-15T23:10:10.144Z,-10.38
2022-12-15T23:15:31.745Z,-10.37
2022-12-15T23:20:35.754Z,-10.35
2022-12-15T23:25:40.945Z,-10.40
2022-12-15T23:30:49.926Z,-10.61
2022-12-15T23:35:54.880Z,-10.57
2022-12-15T23:41:00.626Z,-10.71
2022-12-15T23:46:07.084Z,-10.63
2022-12-15T23:51:14.204Z,-10.54
2022-12-15T23:56:22.431Z,-10.66
